sensor_id;sensor_type;location;lat;lon;timestamp;P1;durP1;ratioP1;P2;durP2;ratioP2
69463;SDS011;56665;41.106;16.688;2024-01-30T00:00:12;24.73;;;8.65;;
69463;SDS011;56665;41.106;16.688;2024-01-30T00:03:17;25.27;;;8.90;;
69463;SDS011;56665;41.106;16.688;2024-01-30T00:06:21;21.77;;;8.95;;
69463;SDS011;56665;41.106;16.688;2024-01-30T00:09:25;23.63;;;8.57;;
69463;SDS011;56665;41.106;16.688;2024-01-30T00:12:29;19.98;;;7.75;;
69463;SDS011;56665;41.106;16.688;2024-01-30T00:15:32;21.90;;;8.43;;
69463;SDS011;56665;41.106;16.688;2024-01-30T00:18:36;21.35;;;8.15;;
69463;SDS011;56665;41.106;16.688;2024-01-30T00:21:40;24.55;;;8.48;;
69463;SDS011;56665;41.106;16.688;2024-01-30T00:24:44;22.47;;;8.10;;
69463;SDS011;56665;41.106;16.688;2024-01-30T00:27:48;20.60;;;8.27;;
69463;SDS011;56665;41.106;16.688;2024-01-30T00:30:52;25.23;;;8.20;;
69463;SDS011;56665;41.106;16.688;2024-01-30T00:33:56;23.25;;;9.07;;
69463;SDS011;56665;41.106;16.688;2024-01-30T00:36:59;23.95;;;9.25;;
69463;SDS011;56665;41.106;16.688;2024-01-30T00:40:03;23.53;;;8.57;;
69463;SDS011;56665;41.106;16.688;2024-01-30T00:43:09;24.55;;;8.13;;
69463;SDS011;56665;41.106;16.688;2024-01-30T00:46:13;26.52;;;9.35;;
69463;SDS011;56665;41.106;16.688;2024-01-30T00:49:16;21.00;;;8.43;;
69463;SDS011;56665;41.106;16.688;2024-01-30T00:52:20;23.83;;;8.40;;
69463;SDS011;56665;41.106;16.688;2024-01-30T00:55:24;22.27;;;8.50;;
69463;SDS011;56665;41.106;16.688;2024-01-30T00:58:28;23.60;;;9.05;;
69463;SDS011;56665;41.106;16.688;2024-01-30T01:01:32;25.05;;;8.75;;
69463;SDS011;56665;41.106;16.688;2024-01-30T01:04:37;22.08;;;8.52;;
69463;SDS011;56665;41.106;16.688;2024-01-30T01:07:41;22.80;;;9.25;;
69463;SDS011;56665;41.106;16.688;2024-01-30T01:10:46;25.90;;;9.27;;
69463;SDS011;56665;41.106;16.688;2024-01-30T01:13:49;22.45;;;8.65;;
69463;SDS011;56665;41.106;16.688;2024-01-30T01:16:53;31.10;;;9.40;;
69463;SDS011;56665;41.106;16.688;2024-01-30T01:19:57;23.48;;;9.38;;
69463;SDS011;56665;41.106;16.688;2024-01-30T01:23:00;21.15;;;7.78;;
69463;SDS011;56665;41.106;16.688;2024-01-30T01:26:04;25.97;;;8.90;;
69463;SDS011;56665;41.106;16.688;2024-01-30T01:29:08;20.40;;;8.15;;
69463;SDS011;56665;41.106;16.688;2024-01-30T01:32:15;23.73;;;8.25;;
69463;SDS011;56665;41.106;16.688;2024-01-30T01:35:18;23.23;;;8.10;;
69463;SDS011;56665;41.106;16.688;2024-01-30T01:38:22;20.60;;;7.07;;
69463;SDS011;56665;41.106;16.688;2024-01-30T01:41:29;20.03;;;7.37;;
69463;SDS011;56665;41.106;16.688;2024-01-30T01:44:34;18.55;;;7.43;;
69463;SDS011;56665;41.106;16.688;2024-01-30T01:47:38;19.60;;;7.40;;
69463;SDS011;56665;41.106;16.688;2024-01-30T01:50:42;18.98;;;6.82;;
69463;SDS011;56665;41.106;16.688;2024-01-30T01:53:46;19.42;;;8.00;;
69463;SDS011;56665;41.106;16.688;2024-01-30T01:56:51;19.50;;;6.87;;
69463;SDS011;56665;41.106;16.688;2024-01-30T01:59:55;19.63;;;7.40;;
69463;SDS011;56665;41.106;16.688;2024-01-30T02:02:59;17.38;;;6.88;;
69463;SDS011;56665;41.106;16.688;2024-01-30T02:06:03;21.65;;;7.47;;
69463;SDS011;56665;41.106;16.688;2024-01-30T02:09:07;16.85;;;6.85;;
69463;SDS011;56665;41.106;16.688;2024-01-30T02:12:12;18.23;;;6.80;;
69463;SDS011;56665;41.106;16.688;2024-01-30T02:15:16;18.80;;;6.78;;
69463;SDS011;56665;41.106;16.688;2024-01-30T02:18:22;17.73;;;7.10;;
69463;SDS011;56665;41.106;16.688;2024-01-30T02:21:41;22.92;;;6.80;;
69463;SDS011;56665;41.106;16.688;2024-01-30T02:24:45;19.40;;;7.15;;
69463;SDS011;56665;41.106;16.688;2024-01-30T02:27:49;17.37;;;6.67;;
69463;SDS011;56665;41.106;16.688;2024-01-30T02:30:52;17.85;;;6.93;;
69463;SDS011;56665;41.106;16.688;2024-01-30T02:33:56;18.05;;;6.60;;
69463;SDS011;56665;41.106;16.688;2024-01-30T02:37:00;15.27;;;5.78;;
69463;SDS011;56665;41.106;16.688;2024-01-30T02:40:05;19.33;;;6.28;;
69463;SDS011;56665;41.106;16.688;2024-01-30T02:43:09;21.63;;;7.67;;
69463;SDS011;56665;41.106;16.688;2024-01-30T02:46:12;25.25;;;8.57;;
69463;SDS011;56665;41.106;16.688;2024-01-30T02:49:16;24.75;;;8.90;;
69463;SDS011;56665;41.106;16.688;2024-01-30T02:52:20;24.00;;;8.82;;
69463;SDS011;56665;41.106;16.688;2024-01-30T02:55:24;23.33;;;8.27;;
69463;SDS011;56665;41.106;16.688;2024-01-30T02:58:28;23.50;;;8.40;;
69463;SDS011;56665;41.106;16.688;2024-01-30T03:01:31;28.60;;;7.75;;
69463;SDS011;56665;41.106;16.688;2024-01-30T03:04:35;26.05;;;9.50;;
69463;SDS011;56665;41.106;16.688;2024-01-30T03:07:39;23.20;;;10.63;;
69463;SDS011;56665;41.106;16.688;2024-01-30T03:10:43;18.35;;;8.77;;
69463;SDS011;56665;41.106;16.688;2024-01-30T03:13:46;16.03;;;8.07;;
69463;SDS011;56665;41.106;16.688;2024-01-30T03:16:50;15.57;;;7.95;;
69463;SDS011;56665;41.106;16.688;2024-01-30T03:19:54;17.83;;;7.70;;
69463;SDS011;56665;41.106;16.688;2024-01-30T03:22:59;12.75;;;6.60;;
69463;SDS011;56665;41.106;16.688;2024-01-30T03:26:03;19.05;;;10.15;;
69463;SDS011;56665;41.106;16.688;2024-01-30T03:29:09;12.27;;;6.40;;
69463;SDS011;56665;41.106;16.688;2024-01-30T03:32:13;10.77;;;4.50;;
69463;SDS011;56665;41.106;16.688;2024-01-30T03:35:18;9.57;;;4.60;;
69463;SDS011;56665;41.106;16.688;2024-01-30T03:38:23;10.10;;;4.18;;
69463;SDS011;56665;41.106;16.688;2024-01-30T03:41:27;8.18;;;3.92;;
69463;SDS011;56665;41.106;16.688;2024-01-30T03:44:30;9.13;;;4.37;;
69463;SDS011;56665;41.106;16.688;2024-01-30T03:47:34;12.85;;;4.93;;
69463;SDS011;56665;41.106;16.688;2024-01-30T03:50:38;13.18;;;4.50;;
69463;SDS011;56665;41.106;16.688;2024-01-30T03:53:42;11.40;;;4.25;;
69463;SDS011;56665;41.106;16.688;2024-01-30T03:56:47;10.20;;;4.53;;
69463;SDS011;56665;41.106;16.688;2024-01-30T03:59:51;10.57;;;4.07;;
69463;SDS011;56665;41.106;16.688;2024-01-30T04:02:54;11.70;;;4.50;;
69463;SDS011;56665;41.106;16.688;2024-01-30T04:05:58;9.30;;;4.00;;
69463;SDS011;56665;41.106;16.688;2024-01-30T04:09:02;11.50;;;4.50;;
69463;SDS011;56665;41.106;16.688;2024-01-30T04:12:07;9.95;;;4.68;;
69463;SDS011;56665;41.106;16.688;2024-01-30T04:15:10;11.17;;;5.27;;
69463;SDS011;56665;41.106;16.688;2024-01-30T04:18:14;14.40;;;5.30;;
69463;SDS011;56665;41.106;16.688;2024-01-30T04:21:18;12.82;;;6.75;;
69463;SDS011;56665;41.106;16.688;2024-01-30T04:24:23;13.20;;;6.32;;
69463;SDS011;56665;41.106;16.688;2024-01-30T04:27:26;13.73;;;6.00;;
69463;SDS011;56665;41.106;16.688;2024-01-30T04:30:30;12.00;;;5.93;;
69463;SDS011;56665;41.106;16.688;2024-01-30T04:33:34;13.45;;;6.40;;
69463;SDS011;56665;41.106;16.688;2024-01-30T04:36:38;10.63;;;5.32;;
69463;SDS011;56665;41.106;16.688;2024-01-30T04:39:42;12.95;;;5.38;;
69463;SDS011;56665;41.106;16.688;2024-01-30T04:42:46;11.05;;;4.45;;
69463;SDS011;56665;41.106;16.688;2024-01-30T04:45:50;9.73;;;4.40;;
69463;SDS011;56665;41.106;16.688;2024-01-30T04:48:54;13.75;;;4.70;;
69463;SDS011;56665;41.106;16.688;2024-01-30T04:51:57;10.63;;;4.43;;
69463;SDS011;56665;41.106;16.688;2024-01-30T04:55:02;13.35;;;5.70;;
69463;SDS011;56665;41.106;16.688;2024-01-30T04:58:05;13.68;;;6.78;;
69463;SDS011;56665;41.106;16.688;2024-01-30T05:01:09;16.93;;;8.67;;
69463;SDS011;56665;41.106;16.688;2024-01-30T05:04:13;13.85;;;6.72;;
69463;SDS011;56665;41.106;16.688;2024-01-30T05:07:17;12.20;;;6.15;;
69463;SDS011;56665;41.106;16.688;2024-01-30T05:10:21;14.45;;;6.60;;
69463;SDS011;56665;41.106;16.688;2024-01-30T05:13:25;13.65;;;6.57;;
69463;SDS011;56665;41.106;16.688;2024-01-30T05:16:29;12.40;;;6.30;;
69463;SDS011;56665;41.106;16.688;2024-01-30T05:19:33;12.25;;;5.82;;
69463;SDS011;56665;41.106;16.688;2024-01-30T05:22:36;18.95;;;7.50;;
69463;SDS011;56665;41.106;16.688;2024-01-30T05:25:40;16.55;;;6.72;;
69463;SDS011;56665;41.106;16.688;2024-01-30T05:28:44;19.85;;;8.85;;
69463;SDS011;56665;41.106;16.688;2024-01-30T05:31:48;19.73;;;9.60;;
69463;SDS011;56665;41.106;16.688;2024-01-30T05:34:51;19.52;;;9.40;;
69463;SDS011;56665;41.106;16.688;2024-01-30T05:37:55;19.85;;;8.38;;
69463;SDS011;56665;41.106;16.688;2024-01-30T05:40:59;21.88;;;8.02;;
69463;SDS011;56665;41.106;16.688;2024-01-30T05:44:03;19.73;;;8.25;;
69463;SDS011;56665;41.106;16.688;2024-01-30T05:47:06;19.03;;;8.60;;
69463;SDS011;56665;41.106;16.688;2024-01-30T05:50:10;19.00;;;9.00;;
69463;SDS011;56665;41.106;16.688;2024-01-30T05:53:14;24.23;;;9.88;;
69463;SDS011;56665;41.106;16.688;2024-01-30T05:56:18;24.35;;;9.82;;
69463;SDS011;56665;41.106;16.688;2024-01-30T05:59:21;19.98;;;9.75;;
69463;SDS011;56665;41.106;16.688;2024-01-30T06:02:25;17.90;;;8.63;;
69463;SDS011;56665;41.106;16.688;2024-01-30T06:05:29;21.42;;;9.00;;
69463;SDS011;56665;41.106;16.688;2024-01-30T06:08:33;24.77;;;10.88;;
69463;SDS011;56665;41.106;16.688;2024-01-30T06:11:36;23.20;;;12.32;;
69463;SDS011;56665;41.106;16.688;2024-01-30T06:14:40;27.17;;;13.15;;
69463;SDS011;56665;41.106;16.688;2024-01-30T06:17:45;21.30;;;11.20;;
69463;SDS011;56665;41.106;16.688;2024-01-30T06:20:49;24.65;;;10.07;;
69463;SDS011;56665;41.106;16.688;2024-01-30T06:23:52;24.10;;;11.07;;
69463;SDS011;56665;41.106;16.688;2024-01-30T06:26:56;24.70;;;10.77;;
69463;SDS011;56665;41.106;16.688;2024-01-30T06:30:00;23.77;;;11.07;;
69463;SDS011;56665;41.106;16.688;2024-01-30T06:33:05;22.03;;;10.83;;
69463;SDS011;56665;41.106;16.688;2024-01-30T06:36:09;26.50;;;11.48;;
69463;SDS011;56665;41.106;16.688;2024-01-30T06:39:12;28.60;;;13.55;;
69463;SDS011;56665;41.106;16.688;2024-01-30T06:42:16;31.30;;;16.45;;
69463;SDS011;56665;41.106;16.688;2024-01-30T06:45:20;35.97;;;17.58;;
69463;SDS011;56665;41.106;16.688;2024-01-30T06:48:24;34.20;;;17.17;;
69463;SDS011;56665;41.106;16.688;2024-01-30T06:51:28;33.78;;;17.25;;
69463;SDS011;56665;41.106;16.688;2024-01-30T06:54:31;30.67;;;16.33;;
69463;SDS011;56665;41.106;16.688;2024-01-30T06:57:36;31.38;;;15.85;;
69463;SDS011;56665;41.106;16.688;2024-01-30T07:00:40;33.05;;;16.65;;
69463;SDS011;56665;41.106;16.688;2024-01-30T07:03:43;44.60;;;23.40;;
69463;SDS011;56665;41.106;16.688;2024-01-30T07:06:47;42.35;;;22.45;;
69463;SDS011;56665;41.106;16.688;2024-01-30T07:09:51;45.58;;;22.70;;
69463;SDS011;56665;41.106;16.688;2024-01-30T07:13:00;44.10;;;23.65;;
69463;SDS011;56665;41.106;16.688;2024-01-30T07:16:04;58.25;;;31.15;;
69463;SDS011;56665;41.106;16.688;2024-01-30T07:19:08;57.33;;;30.60;;
69463;SDS011;56665;41.106;16.688;2024-01-30T07:22:12;55.00;;;28.67;;
69463;SDS011;56665;41.106;16.688;2024-01-30T07:25:16;47.10;;;26.67;;
69463;SDS011;56665;41.106;16.688;2024-01-30T07:31:31;50.72;;;28.15;;
69463;SDS011;56665;41.106;16.688;2024-01-30T07:34:35;46.80;;;24.03;;
69463;SDS011;56665;41.106;16.688;2024-01-30T07:37:39;34.78;;;20.60;;
69463;SDS011;56665;41.106;16.688;2024-01-30T07:40:43;40.80;;;18.95;;
69463;SDS011;56665;41.106;16.688;2024-01-30T07:43:46;38.70;;;20.30;;
69463;SDS011;56665;41.106;16.688;2024-01-30T07:46:50;42.13;;;23.30;;
69463;SDS011;56665;41.106;16.688;2024-01-30T07:49:54;47.40;;;25.30;;
69463;SDS011;56665;41.106;16.688;2024-01-30T07:52:59;51.80;;;28.77;;
69463;SDS011;56665;41.106;16.688;2024-01-30T07:56:03;64.85;;;35.55;;
69463;SDS011;56665;41.106;16.688;2024-01-30T07:59:11;59.08;;;33.60;;
69463;SDS011;56665;41.106;16.688;2024-01-30T08:02:15;58.45;;;32.65;;
69463;SDS011;56665;41.106;16.688;2024-01-30T08:05:19;66.60;;;36.83;;
69463;SDS011;56665;41.106;16.688;2024-01-30T08:08:23;72.93;;;35.00;;
69463;SDS011;56665;41.106;16.688;2024-01-30T08:11:26;63.67;;;33.50;;
69463;SDS011;56665;41.106;16.688;2024-01-30T08:14:31;52.58;;;28.33;;
69463;SDS011;56665;41.106;16.688;2024-01-30T08:17:35;44.70;;;24.60;;
69463;SDS011;56665;41.106;16.688;2024-01-30T08:20:39;39.20;;;21.63;;
69463;SDS011;56665;41.106;16.688;2024-01-30T08:23:43;37.33;;;19.40;;
69463;SDS011;56665;41.106;16.688;2024-01-30T08:26:46;28.08;;;16.23;;
69463;SDS011;56665;41.106;16.688;2024-01-30T08:29:50;26.73;;;14.85;;
69463;SDS011;56665;41.106;16.688;2024-01-30T08:32:54;24.08;;;13.35;;
69463;SDS011;56665;41.106;16.688;2024-01-30T08:35:58;19.33;;;11.93;;
69463;SDS011;56665;41.106;16.688;2024-01-30T08:39:02;16.27;;;9.98;;
69463;SDS011;56665;41.106;16.688;2024-01-30T08:42:06;17.23;;;9.55;;
69463;SDS011;56665;41.106;16.688;2024-01-30T08:45:11;14.98;;;9.00;;
69463;SDS011;56665;41.106;16.688;2024-01-30T08:48:14;11.30;;;5.85;;
69463;SDS011;56665;41.106;16.688;2024-01-30T08:51:18;13.07;;;7.13;;
69463;SDS011;56665;41.106;16.688;2024-01-30T08:54:22;11.55;;;6.35;;
69463;SDS011;56665;41.106;16.688;2024-01-30T08:57:27;12.25;;;5.88;;
69463;SDS011;56665;41.106;16.688;2024-01-30T09:00:33;12.20;;;6.10;;
69463;SDS011;56665;41.106;16.688;2024-01-30T09:03:37;10.52;;;5.93;;
69463;SDS011;56665;41.106;16.688;2024-01-30T09:06:44;7.40;;;5.17;;
69463;SDS011;56665;41.106;16.688;2024-01-30T09:09:47;8.25;;;4.20;;
69463;SDS011;56665;41.106;16.688;2024-01-30T09:12:52;7.93;;;3.80;;
69463;SDS011;56665;41.106;16.688;2024-01-30T09:15:55;7.80;;;4.53;;
69463;SDS011;56665;41.106;16.688;2024-01-30T09:18:59;9.68;;;5.68;;
69463;SDS011;56665;41.106;16.688;2024-01-30T09:22:03;12.80;;;5.57;;
69463;SDS011;56665;41.106;16.688;2024-01-30T09:25:07;9.95;;;5.82;;
69463;SDS011;56665;41.106;16.688;2024-01-30T09:28:11;6.18;;;4.00;;
69463;SDS011;56665;41.106;16.688;2024-01-30T09:31:14;12.73;;;5.97;;
69463;SDS011;56665;41.106;16.688;2024-01-30T09:34:18;13.63;;;7.43;;
69463;SDS011;56665;41.106;16.688;2024-01-30T09:37:22;11.73;;;5.77;;
69463;SDS011;56665;41.106;16.688;2024-01-30T09:40:26;10.98;;;5.93;;
69463;SDS011;56665;41.106;16.688;2024-01-30T09:43:31;11.75;;;6.75;;
69463;SDS011;56665;41.106;16.688;2024-01-30T09:46:37;15.77;;;8.27;;
69463;SDS011;56665;41.106;16.688;2024-01-30T09:49:42;14.43;;;8.52;;
69463;SDS011;56665;41.106;16.688;2024-01-30T09:52:48;14.67;;;7.70;;
69463;SDS011;56665;41.106;16.688;2024-01-30T09:55:53;12.95;;;7.43;;
69463;SDS011;56665;41.106;16.688;2024-01-30T09:58:57;12.75;;;6.72;;
69463;SDS011;56665;41.106;16.688;2024-01-30T10:02:00;12.18;;;5.95;;
69463;SDS011;56665;41.106;16.688;2024-01-30T10:05:04;11.63;;;6.32;;
69463;SDS011;56665;41.106;16.688;2024-01-30T10:08:09;11.60;;;6.20;;
69463;SDS011;56665;41.106;16.688;2024-01-30T10:11:12;14.65;;;8.35;;
69463;SDS011;56665;41.106;16.688;2024-01-30T10:14:16;14.27;;;8.13;;
69463;SDS011;56665;41.106;16.688;2024-01-30T10:17:20;12.50;;;7.22;;
69463;SDS011;56665;41.106;16.688;2024-01-30T10:20:24;11.45;;;6.78;;
69463;SDS011;56665;41.106;16.688;2024-01-30T10:23:28;9.67;;;5.77;;
69463;SDS011;56665;41.106;16.688;2024-01-30T10:26:32;10.95;;;6.55;;
69463;SDS011;56665;41.106;16.688;2024-01-30T10:29:37;12.65;;;7.75;;
69463;SDS011;56665;41.106;16.688;2024-01-30T10:32:40;25.48;;;18.65;;
69463;SDS011;56665;41.106;16.688;2024-01-30T10:35:44;20.90;;;14.15;;
69463;SDS011;56665;41.106;16.688;2024-01-30T10:38:49;19.93;;;12.90;;
69463;SDS011;56665;41.106;16.688;2024-01-30T10:41:54;36.92;;;27.45;;
69463;SDS011;56665;41.106;16.688;2024-01-30T10:45:05;43.60;;;32.90;;
69463;SDS011;56665;41.106;16.688;2024-01-30T10:48:12;42.05;;;33.42;;
69463;SDS011;56665;41.106;16.688;2024-01-30T10:51:16;13.00;;;9.27;;
69463;SDS011;56665;41.106;16.688;2024-01-30T10:54:19;11.63;;;6.20;;
69463;SDS011;56665;41.106;16.688;2024-01-30T10:57:25;15.27;;;9.60;;
69463;SDS011;56665;41.106;16.688;2024-01-30T11:00:29;15.88;;;9.85;;
69463;SDS011;56665;41.106;16.688;2024-01-30T11:03:36;15.23;;;8.50;;
69463;SDS011;56665;41.106;16.688;2024-01-30T11:06:41;14.68;;;8.80;;
69463;SDS011;56665;41.106;16.688;2024-01-30T11:09:49;13.13;;;7.83;;
69463;SDS011;56665;41.106;16.688;2024-01-30T11:13:15;14.65;;;8.93;;
69463;SDS011;56665;41.106;16.688;2024-01-30T11:16:19;12.50;;;7.28;;
69463;SDS011;56665;41.106;16.688;2024-01-30T11:19:27;13.57;;;7.50;;
69463;SDS011;56665;41.106;16.688;2024-01-30T11:22:33;13.40;;;6.78;;
69463;SDS011;56665;41.106;16.688;2024-01-30T11:25:37;19.40;;;10.80;;
69463;SDS011;56665;41.106;16.688;2024-01-30T11:28:41;15.60;;;7.43;;
69463;SDS011;56665;41.106;16.688;2024-01-30T11:31:52;9.52;;;6.38;;
69463;SDS011;56665;41.106;16.688;2024-01-30T11:34:57;17.33;;;8.65;;
69463;SDS011;56665;41.106;16.688;2024-01-30T11:38:01;10.60;;;5.88;;
69463;SDS011;56665;41.106;16.688;2024-01-30T11:41:06;10.50;;;6.10;;
69463;SDS011;56665;41.106;16.688;2024-01-30T11:44:11;42.40;;;24.45;;
69463;SDS011;56665;41.106;16.688;2024-01-30T11:47:15;13.40;;;6.30;;
69463;SDS011;56665;41.106;16.688;2024-01-30T11:50:19;20.20;;;12.30;;
69463;SDS011;56665;41.106;16.688;2024-01-30T11:53:23;19.15;;;11.27;;
69463;SDS011;56665;41.106;16.688;2024-01-30T11:56:27;7.87;;;4.87;;
69463;SDS011;56665;41.106;16.688;2024-01-30T11:59:30;7.65;;;5.05;;
69463;SDS011;56665;41.106;16.688;2024-01-30T12:02:34;8.70;;;5.03;;
69463;SDS011;56665;41.106;16.688;2024-01-30T12:05:38;13.75;;;8.23;;
69463;SDS011;56665;41.106;16.688;2024-01-30T12:08:58;11.93;;;7.28;;
69463;SDS011;56665;41.106;16.688;2024-01-30T12:12:03;10.77;;;6.50;;
69463;SDS011;56665;41.106;16.688;2024-01-30T12:15:07;29.58;;;19.52;;
69463;SDS011;56665;41.106;16.688;2024-01-30T12:18:11;26.80;;;18.52;;
69463;SDS011;56665;41.106;16.688;2024-01-30T12:21:18;9.93;;;6.95;;
69463;SDS011;56665;41.106;16.688;2024-01-30T12:24:22;10.30;;;4.93;;
69463;SDS011;56665;41.106;16.688;2024-01-30T12:27:26;8.27;;;5.20;;
69463;SDS011;56665;41.106;16.688;2024-01-30T12:30:30;8.55;;;5.10;;
69463;SDS011;56665;41.106;16.688;2024-01-30T12:33:33;13.05;;;6.32;;
69463;SDS011;56665;41.106;16.688;2024-01-30T12:36:39;9.07;;;5.53;;
69463;SDS011;56665;41.106;16.688;2024-01-30T12:39:43;14.40;;;8.95;;
69463;SDS011;56665;41.106;16.688;2024-01-30T12:42:47;12.83;;;6.40;;
69463;SDS011;56665;41.106;16.688;2024-01-30T12:45:53;11.95;;;7.85;;
69463;SDS011;56665;41.106;16.688;2024-01-30T12:48:57;9.15;;;5.72;;
69463;SDS011;56665;41.106;16.688;2024-01-30T12:52:00;13.73;;;5.97;;
69463;SDS011;56665;41.106;16.688;2024-01-30T12:55:04;12.77;;;8.35;;
69463;SDS011;56665;41.106;16.688;2024-01-30T12:58:08;13.83;;;8.10;;
69463;SDS011;56665;41.106;16.688;2024-01-30T13:01:11;10.38;;;6.45;;
69463;SDS011;56665;41.106;16.688;2024-01-30T13:04:15;12.90;;;8.02;;
69463;SDS011;56665;41.106;16.688;2024-01-30T13:07:19;11.15;;;5.45;;
69463;SDS011;56665;41.106;16.688;2024-01-30T13:10:23;8.13;;;5.07;;
69463;SDS011;56665;41.106;16.688;2024-01-30T13:13:27;8.83;;;4.83;;
69463;SDS011;56665;41.106;16.688;2024-01-30T13:16:31;9.23;;;5.30;;
69463;SDS011;56665;41.106;16.688;2024-01-30T13:19:35;11.43;;;5.60;;
69463;SDS011;56665;41.106;16.688;2024-01-30T13:22:38;9.07;;;5.78;;
69463;SDS011;56665;41.106;16.688;2024-01-30T13:25:42;12.48;;;5.90;;
69463;SDS011;56665;41.106;16.688;2024-01-30T13:28:46;7.43;;;4.73;;
69463;SDS011;56665;41.106;16.688;2024-01-30T13:31:50;8.88;;;5.28;;
69463;SDS011;56665;41.106;16.688;2024-01-30T13:34:54;14.57;;;7.10;;
69463;SDS011;56665;41.106;16.688;2024-01-30T13:37:57;20.92;;;10.93;;
69463;SDS011;56665;41.106;16.688;2024-01-30T13:41:01;12.23;;;6.40;;
69463;SDS011;56665;41.106;16.688;2024-01-30T13:44:05;9.80;;;5.53;;
69463;SDS011;56665;41.106;16.688;2024-01-30T13:47:09;10.18;;;4.93;;
69463;SDS011;56665;41.106;16.688;2024-01-30T13:50:12;9.70;;;5.32;;
69463;SDS011;56665;41.106;16.688;2024-01-30T13:53:18;9.13;;;4.85;;
69463;SDS011;56665;41.106;16.688;2024-01-30T13:56:22;7.70;;;4.57;;
69463;SDS011;56665;41.106;16.688;2024-01-30T13:59:25;12.27;;;5.77;;
69463;SDS011;56665;41.106;16.688;2024-01-30T14:02:29;8.38;;;5.22;;
69463;SDS011;56665;41.106;16.688;2024-01-30T14:05:33;11.13;;;5.20;;
69463;SDS011;56665;41.106;16.688;2024-01-30T14:08:36;8.63;;;4.30;;
69463;SDS011;56665;41.106;16.688;2024-01-30T14:11:41;14.27;;;7.07;;
69463;SDS011;56665;41.106;16.688;2024-01-30T14:14:45;9.97;;;5.20;;
69463;SDS011;56665;41.106;16.688;2024-01-30T14:17:49;5.90;;;4.03;;
69463;SDS011;56665;41.106;16.688;2024-01-30T14:20:52;14.68;;;6.82;;
69463;SDS011;56665;41.106;16.688;2024-01-30T14:23:57;8.45;;;4.57;;
69463;SDS011;56665;41.106;16.688;2024-01-30T14:27:01;11.40;;;6.07;;
69463;SDS011;56665;41.106;16.688;2024-01-30T14:30:05;8.70;;;4.83;;
69463;SDS011;56665;41.106;16.688;2024-01-30T14:33:09;8.85;;;4.85;;
69463;SDS011;56665;41.106;16.688;2024-01-30T14:36:13;12.52;;;7.22;;
69463;SDS011;56665;41.106;16.688;2024-01-30T14:39:17;9.88;;;5.70;;
69463;SDS011;56665;41.106;16.688;2024-01-30T14:42:22;12.80;;;5.85;;
69463;SDS011;56665;41.106;16.688;2024-01-30T14:45:26;12.53;;;6.97;;
69463;SDS011;56665;41.106;16.688;2024-01-30T14:48:31;17.08;;;8.80;;
69463;SDS011;56665;41.106;16.688;2024-01-30T14:51:34;8.80;;;5.30;;
69463;SDS011;56665;41.106;16.688;2024-01-30T14:54:38;12.10;;;6.85;;
69463;SDS011;56665;41.106;16.688;2024-01-30T14:57:42;17.35;;;10.40;;
69463;SDS011;56665;41.106;16.688;2024-01-30T15:00:48;12.80;;;6.73;;
69463;SDS011;56665;41.106;16.688;2024-01-30T15:03:52;11.48;;;6.25;;
69463;SDS011;56665;41.106;16.688;2024-01-30T15:06:55;12.07;;;7.93;;
69463;SDS011;56665;41.106;16.688;2024-01-30T15:09:59;10.95;;;7.07;;
69463;SDS011;56665;41.106;16.688;2024-01-30T15:13:04;24.60;;;12.43;;
69463;SDS011;56665;41.106;16.688;2024-01-30T15:16:07;9.93;;;5.30;;
69463;SDS011;56665;41.106;16.688;2024-01-30T15:19:11;8.35;;;4.78;;
69463;SDS011;56665;41.106;16.688;2024-01-30T15:22:15;10.18;;;4.68;;
69463;SDS011;56665;41.106;16.688;2024-01-30T15:25:19;7.03;;;4.18;;
69463;SDS011;56665;41.106;16.688;2024-01-30T15:28:33;7.20;;;5.13;;
69463;SDS011;56665;41.106;16.688;2024-01-30T15:31:40;9.60;;;4.20;;
69463;SDS011;56665;41.106;16.688;2024-01-30T15:34:44;10.27;;;4.88;;
69463;SDS011;56665;41.106;16.688;2024-01-30T15:37:48;9.98;;;4.35;;
69463;SDS011;56665;41.106;16.688;2024-01-30T15:40:51;6.68;;;3.90;;
69463;SDS011;56665;41.106;16.688;2024-01-30T15:43:55;9.82;;;6.47;;
69463;SDS011;56665;41.106;16.688;2024-01-30T15:47:20;9.33;;;4.70;;
69463;SDS011;56665;41.106;16.688;2024-01-30T15:50:47;9.25;;;4.45;;
69463;SDS011;56665;41.106;16.688;2024-01-30T15:54:13;10.55;;;5.13;;
69463;SDS011;56665;41.106;16.688;2024-01-30T15:57:36;10.75;;;4.95;;
69463;SDS011;56665;41.106;16.688;2024-01-30T16:01:02;9.45;;;5.35;;
69463;SDS011;56665;41.106;16.688;2024-01-30T16:04:31;10.20;;;6.00;;
69463;SDS011;56665;41.106;16.688;2024-01-30T16:08:00;11.32;;;5.63;;
69463;SDS011;56665;41.106;16.688;2024-01-30T16:11:29;11.45;;;6.72;;
69463;SDS011;56665;41.106;16.688;2024-01-30T16:15:00;10.55;;;6.45;;
69463;SDS011;56665;41.106;16.688;2024-01-30T16:18:30;10.35;;;5.78;;
69463;SDS011;56665;41.106;16.688;2024-01-30T16:21:59;8.73;;;5.20;;
69463;SDS011;56665;41.106;16.688;2024-01-30T16:25:28;13.73;;;5.90;;
69463;SDS011;56665;41.106;16.688;2024-01-30T16:28:58;10.93;;;5.85;;
69463;SDS011;56665;41.106;16.688;2024-01-30T16:32:26;11.43;;;5.47;;
69463;SDS011;56665;41.106;16.688;2024-01-30T16:35:59;18.95;;;11.38;;
69463;SDS011;56665;41.106;16.688;2024-01-30T16:39:28;13.90;;;8.60;;
69463;SDS011;56665;41.106;16.688;2024-01-30T16:42:50;12.82;;;7.85;;
69463;SDS011;56665;41.106;16.688;2024-01-30T16:46:19;16.92;;;7.63;;
69463;SDS011;56665;41.106;16.688;2024-01-30T16:49:49;16.02;;;9.68;;
69463;SDS011;56665;41.106;16.688;2024-01-30T16:53:18;26.15;;;15.80;;
69463;SDS011;56665;41.106;16.688;2024-01-30T16:56:47;28.10;;;16.03;;
69463;SDS011;56665;41.106;16.688;2024-01-30T17:00:16;28.83;;;18.88;;
69463;SDS011;56665;41.106;16.688;2024-01-30T17:03:45;36.13;;;22.63;;
69463;SDS011;56665;41.106;16.688;2024-01-30T17:07:14;34.28;;;20.98;;
69463;SDS011;56665;41.106;16.688;2024-01-30T17:10:43;32.45;;;16.65;;
69463;SDS011;56665;41.106;16.688;2024-01-30T17:14:12;23.43;;;14.40;;
69463;SDS011;56665;41.106;16.688;2024-01-30T17:17:42;24.60;;;14.07;;
69463;SDS011;56665;41.106;16.688;2024-01-30T17:21:16;29.02;;;15.73;;
69463;SDS011;56665;41.106;16.688;2024-01-30T17:24:45;34.75;;;17.33;;
69463;SDS011;56665;41.106;16.688;2024-01-30T17:28:15;37.80;;;20.85;;
69463;SDS011;56665;41.106;16.688;2024-01-30T17:31:44;36.50;;;20.67;;
69463;SDS011;56665;41.106;16.688;2024-01-30T17:35:13;40.00;;;19.42;;
69463;SDS011;56665;41.106;16.688;2024-01-30T17:38:43;42.70;;;20.27;;
69463;SDS011;56665;41.106;16.688;2024-01-30T17:42:12;52.97;;;22.77;;
69463;SDS011;56665;41.106;16.688;2024-01-30T17:45:36;57.97;;;26.30;;
69463;SDS011;56665;41.106;16.688;2024-01-30T17:49:06;54.77;;;25.20;;
69463;SDS011;56665;41.106;16.688;2024-01-30T17:52:35;63.33;;;26.58;;
69463;SDS011;56665;41.106;16.688;2024-01-30T17:55:39;71.05;;;29.65;;
69463;SDS011;56665;41.106;16.688;2024-01-30T17:58:43;72.82;;;29.98;;
69463;SDS011;56665;41.106;16.688;2024-01-30T18:01:47;67.63;;;26.23;;
69463;SDS011;56665;41.106;16.688;2024-01-30T18:04:51;66.60;;;25.57;;
69463;SDS011;56665;41.106;16.688;2024-01-30T18:07:55;61.85;;;25.55;;
69463;SDS011;56665;41.106;16.688;2024-01-30T18:10:58;58.58;;;25.02;;
69463;SDS011;56665;41.106;16.688;2024-01-30T18:14:02;60.70;;;24.25;;